Time;durP1;ratioP1;P1;durP2;ratioP2;P2;SDS_P1;SDS_P2;PMS_P1;PMS_P2;Temp;Humidity;BMP_temperature;BMP_pressure;BME280_temperature;BME280_humidity;BME280_pressure;Samples;Min_cycle;Max_cycle;Signal;HPM_P1;HPM_P2
2022/08/17 00:01:06;;;;;;;4.37;3.20;;;20.90;99.90;;;;;;5011776;28;20436;-76
2022/08/17 00:03:38;;;;;;;3.90;3.60;;;20.90;99.70;;;;;;5012109;28;20423;-76
2022/08/17 00:06:30;;;;;;;13.00;4.50;;;21.00;99.90;;;;;;5011821;28;20576;-77
2022/08/17 00:08:59;;;;;;;7.13;4.33;;;21.00;99.90;;;;;;5007757;28;20439;-76
2022/08/17 00:11:34;;;;;;;5.73;4.60;;;20.70;99.90;;;;;;5011165;28;20804;-76
2022/08/17 00:14:10;;;;;;;5.60;5.10;;;20.50;99.90;;;;;;4993642;28;20424;-76
2022/08/17 00:16:42;;;;;;;8.50;4.80;;;20.30;99.90;;;;;;4993234;28;20801;-77
2022/08/17 00:19:12;;;;;;;6.00;5.20;;;20.10;99.90;;;;;;5010822;28;20424;-77
2022/08/17 00:21:44;;;;;;;5.90;5.30;;;20.10;99.90;;;;;;5011235;28;20829;-78
2022/08/17 00:24:10;;;;;;;5.20;4.53;;;20.10;99.90;;;;;;5011403;28;20424;-77
2022/08/17 00:26:35;;;;;;;6.40;3.83;;;20.00;99.90;;;;;;5010721;28;21046;-77
2022/08/17 00:29:01;;;;;;;7.20;5.07;;;20.00;99.90;;;;;;5010938;28;20188;-78
2022/08/17 00:31:27;;;;;;;7.07;5.30;;;20.00;99.90;;;;;;4976563;28;20211;-78
2022/08/17 00:33:53;;;;;;;7.23;4.90;;;19.90;99.90;;;;;;4993101;28;20642;-77
2022/08/17 00:36:20;;;;;;;6.37;4.30;;;19.90;99.90;;;;;;5010651;28;20424;-77
2022/08/17 00:38:45;;;;;;;6.43;4.30;;;19.90;99.90;;;;;;5010803;28;20416;-78
2022/08/17 00:41:14;;;;;;;5.63;4.43;;;19.90;99.90;;;;;;5011672;28;20427;-78
2022/08/17 00:43:56;;;;;;;4.97;4.47;;;19.90;99.90;;;;;;4993171;28;20553;-78
2022/08/17 00:46:27;;;;;;;6.03;5.43;;;19.90;99.90;;;;;;5010555;28;20448;-78
2022/08/17 00:48:53;;;;;;;9.20;5.83;;;19.80;99.90;;;;;;4992552;28;20423;-78
2022/08/17 00:51:31;;;;;;;8.70;5.67;;;19.70;99.90;;;;;;5010071;28;20440;-77
2022/08/17 00:54:08;;;;;;;8.97;5.43;;;19.60;99.90;;;;;;4992432;28;20430;-76
2022/08/17 00:56:46;;;;;;;6.00;4.80;;;19.60;99.90;;;;;;4992544;28;20411;-77
2022/08/17 00:59:16;;;;;;;7.23;5.17;;;19.60;99.90;;;;;;5009246;28;20431;-76
2022/08/17 01:01:42;;;;;;;6.87;4.40;;;19.50;99.90;;;;;;5009669;28;20521;-76
2022/08/17 01:04:11;;;;;;;5.13;4.33;;;19.60;99.90;;;;;;4992242;28;20534;-77
2022/08/17 01:06:37;;;;;;;4.50;3.90;;;19.70;99.90;;;;;;4992256;28;20533;-75
2022/08/17 01:09:03;;;;;;;6.07;3.70;;;19.70;99.90;;;;;;4976051;28;20428;-76
2022/08/17 01:11:29;;;;;;;6.70;4.37;;;19.80;99.90;;;;;;5009852;28;21320;-76
2022/08/17 01:13:55;;;;;;;6.90;4.30;;;19.80;99.90;;;;;;4992269;28;20423;-76
2022/08/17 01:16:25;;;;;;;6.33;4.33;;;19.90;99.90;;;;;;4992237;28;20522;-76
2022/08/17 01:18:55;;;;;;;6.43;4.27;;;20.00;99.90;;;;;;5009695;28;20175;-76
2022/08/17 01:21:27;;;;;;;5.43;4.20;;;20.00;99.90;;;;;;4991709;28;20463;-76
2022/08/17 01:23:53;;;;;;;6.47;4.87;;;19.90;99.90;;;;;;5009611;28;20820;-76
2022/08/17 01:26:20;;;;;;;6.97;5.43;;;19.70;99.90;;;;;;5009581;28;20533;-76
2022/08/17 01:28:46;;;;;;;17.27;6.17;;;19.60;99.90;;;;;;4992323;28;21003;-76
2022/08/17 01:31:12;;;;;;;8.97;6.73;;;19.40;99.90;;;;;;4991687;28;20975;-76
2022/08/17 01:33:38;;;;;;;12.20;7.00;;;19.20;99.90;;;;;;5009595;28;20408;-76
2022/08/17 01:36:06;;;;;;;10.40;7.10;;;19.00;99.90;;;;;;4991795;28;20459;-77
2022/08/17 01:38:32;;;;;;;8.50;7.50;;;18.90;99.90;;;;;;5009422;28;20188;-77
2022/08/17 01:41:02;;;;;;;12.77;7.10;;;18.80;99.90;;;;;;5009423;28;20430;-77
2022/08/17 01:43:33;;;;;;;7.97;6.50;;;18.90;99.90;;;;;;4992051;28;20432;-77
2022/08/17 01:46:01;;;;;;;9.70;7.80;;;18.80;99.90;;;;;;5009435;28;21325;-77
2022/08/17 01:48:36;;;;;;;8.50;7.70;;;18.70;99.90;;;;;;4991720;28;20412;-77
2022/08/17 01:51:04;;;;;;;11.23;8.87;;;18.70;99.90;;;;;;4991320;28;20991;-77
2022/08/17 01:53:39;;;;;;;10.80;7.63;;;18.60;99.90;;;;;;4991641;28;20943;-78
2022/08/17 01:56:11;;;;;;;10.10;8.13;;;18.60;99.90;;;;;;5009264;28;20462;-78
2022/08/17 01:58:38;;;;;;;9.30;8.13;;;18.50;99.90;;;;;;5009295;28;20416;-78
2022/08/17 02:01:05;;;;;;;8.73;7.77;;;18.50;99.90;;;;;;4975272;28;20441;-78
2022/08/17 02:03:33;;;;;;;12.50;8.87;;;18.50;99.90;;;;;;5009476;28;20428;-77
2022/08/17 02:05:59;;;;;;;9.90;8.90;;;18.50;99.90;;;;;;5009179;28;20467;-77
2022/08/17 02:08:26;;;;;;;15.53;9.30;;;18.50;99.90;;;;;;4991489;28;20425;-78
2022/08/17 02:10:52;;;;;;;10.63;8.30;;;18.40;99.90;;;;;;5009951;28;21340;-78
2022/08/17 02:13:18;;;;;;;12.30;8.63;;;18.30;99.90;;;;;;4995410;28;20440;-77
2022/08/17 02:15:44;;;;;;;9.83;7.63;;;18.30;99.90;;;;;;5013246;28;20533;-77
2022/08/17 02:18:12;;;;;;;10.13;8.67;;;18.20;99.90;;;;;;5012766;28;20426;-78
2022/08/17 02:20:39;;;;;;;8.80;7.97;;;18.20;99.90;;;;;;5013081;28;20835;-77
2022/08/17 02:23:07;;;;;;;15.27;10.13;;;18.20;99.90;;;;;;4978968;28;20454;-77
2022/08/17 02:25:35;;;;;;;9.70;8.27;;;18.20;99.90;;;;;;4994660;28;20469;-77
2022/08/17 02:28:02;;;;;;;8.27;7.57;;;18.30;99.90;;;;;;4995087;28;20901;-79
2022/08/17 02:30:28;;;;;;;11.80;8.03;;;18.30;99.90;;;;;;5013124;28;20419;-77
2022/08/17 02:32:54;;;;;;;10.83;8.50;;;18.30;99.90;;;;;;5012576;28;20450;-77
2022/08/17 02:35:21;;;;;;;10.50;8.07;;;18.30;99.90;;;;;;5012712;28;20438;-77
2022/08/17 02:37:48;;;;;;;11.53;8.37;;;18.30;99.90;;;;;;4995100;28;20417;-76
2022/08/17 02:40:14;;;;;;;12.00;8.10;;;18.40;99.90;;;;;;5012566;28;20427;-77
2022/08/17 02:42:42;;;;;;;12.97;7.67;;;18.40;99.90;;;;;;4994801;28;21121;-77
2022/08/17 02:45:20;;;;;;;10.50;8.00;;;18.30;99.90;;;;;;4994433;28;20470;-77
2022/08/17 02:47:46;;;;;;;14.23;7.90;;;18.40;99.90;;;;;;5012555;28;20460;-77
2022/08/17 02:50:14;;;;;;;11.30;8.20;;;18.30;99.90;;;;;;4994960;28;21155;-78
2022/08/17 02:52:41;;;;;;;10.30;8.13;;;18.30;99.90;;;;;;5012558;28;20485;-77
2022/08/17 02:55:19;;;;;;;10.60;7.93;;;18.30;99.90;;;;;;5012411;28;20432;-77
2022/08/17 02:57:46;;;;;;;11.13;8.40;;;18.30;99.90;;;;;;4994453;28;20801;-76
2022/08/17 03:00:32;;;;;;;8.80;8.00;;;18.30;99.90;;;;;;4978436;28;21052;-77
2022/08/17 03:02:59;;;;;;;10.30;8.30;;;18.30;99.90;;;;;;4994337;28;20970;-77
2022/08/17 03:05:27;;;;;;;9.20;7.67;;;18.20;99.90;;;;;;4994375;28;20576;-77
2022/08/17 03:07:53;;;;;;;14.13;8.00;;;18.20;99.90;;;;;;4994371;28;20430;-77
2022/08/17 03:10:20;;;;;;;10.63;8.60;;;18.10;99.90;;;;;;5012402;28;20784;-77
2022/08/17 03:12:46;;;;;;;25.50;8.43;;;18.00;99.90;;;;;;5012088;28;20223;-76
2022/08/17 03:15:18;;;;;;;14.57;7.90;;;18.00;99.90;;;;;;4994199;28;20466;-76
2022/08/17 03:17:45;;;;;;;9.73;7.43;;;18.00;99.90;;;;;;5012071;28;21059;-76
2022/08/17 03:20:11;;;;;;;13.77;8.07;;;18.00;99.90;;;;;;5012218;28;20422;-77
2022/08/17 03:22:40;;;;;;;14.07;7.53;;;17.90;99.90;;;;;;4993269;28;20479;-77
2022/08/17 03:25:09;;;;;;;9.90;6.60;;;17.80;99.90;;;;;;5011801;28;20474;-76
2022/08/17 03:27:35;;;;;;;9.83;6.27;;;17.90;99.90;;;;;;4994081;28;20435;-76
2022/08/17 03:30:03;;;;;;;8.27;6.47;;;17.90;99.90;;;;;;5012245;28;20953;-76
2022/08/17 03:32:29;;;;;;;10.57;6.50;;;17.90;99.90;;;;;;5011903;28;20459;-76
2022/08/17 03:34:59;;;;;;;8.60;6.30;;;17.90;99.90;;;;;;4994863;28;20480;-77
2022/08/17 03:37:25;;;;;;;6.97;5.50;;;17.90;99.90;;;;;;5012416;28;20215;-75
2022/08/17 03:39:53;;;;;;;7.10;6.03;;;17.90;99.90;;;;;;4994427;28;20438;-75
2022/08/17 03:42:22;;;;;;;6.90;6.20;;;17.90;99.90;;;;;;4994869;28;20444;-75
2022/08/17 03:44:50;;;;;;;11.23;5.87;;;18.00;99.90;;;;;;4994417;28;20412;-76
2022/08/17 03:58:12;;;;;;;7.83;6.40;;;18.10;99.90;;;;;;5012248;28;20427;-76
2022/08/17 04:00:39;;;;;;;9.27;6.03;;;18.20;99.90;;;;;;5011749;28;20428;-76
2022/08/17 04:03:05;;;;;;;6.10;5.50;;;18.10;99.90;;;;;;5011994;28;20224;-76
2022/08/17 04:05:31;;;;;;;7.40;5.50;;;18.00;99.90;;;;;;4993941;28;20581;-77
2022/08/17 04:07:56;;;;;;;10.93;5.60;;;18.20;99.90;;;;;;5011402;28;20529;-75
2022/08/17 04:10:22;;;;;;;5.93;5.27;;;18.30;99.90;;;;;;5011218;28;20188;-75
2022/08/17 04:12:53;;;;;;;9.33;5.07;;;18.40;99.90;;;;;;5011081;28;20211;-74
2022/08/17 04:15:20;;;;;;;6.40;5.30;;;18.30;99.90;;;;;;5011074;28;20191;-75
2022/08/17 04:17:47;;;;;;;7.97;5.30;;;18.20;99.90;;;;;;5010419;28;20961;-75
2022/08/17 04:20:15;;;;;;;6.07;5.10;;;18.30;99.90;;;;;;5010498;28;20946;-75
2022/08/17 04:22:54;;;;;;;5.23;4.83;;;18.40;99.90;;;;;;4992338;28;20441;-75
2022/08/17 04:25:20;;;;;;;6.90;5.00;;;18.50;99.90;;;;;;5010064;28;20473;-74
2022/08/17 04:27:47;;;;;;;9.17;5.50;;;18.60;99.90;;;;;;5009942;28;20435;-75
2022/08/17 04:30:13;;;;;;;5.63;5.13;;;18.70;99.90;;;;;;5009981;28;20181;-75
2022/08/17 04:32:53;;;;;;;8.53;5.37;;;18.80;99.90;;;;;;5009919;28;20471;-75
2022/08/17 04:35:25;;;;;;;6.03;5.23;;;18.90;99.90;;;;;;5009736;28;20189;-75
2022/08/17 04:37:51;;;;;;;7.07;4.30;;;19.00;99.90;;;;;;4992246;28;20431;-75
2022/08/17 04:43:09;;;;;;;10.33;4.43;;;19.10;99.90;;;;;;5009932;28;20450;-75
2022/08/17 04:45:44;;;;;;;7.10;5.10;;;19.10;99.90;;;;;;5009710;28;20471;-75
2022/08/17 04:48:10;;;;;;;5.80;4.67;;;19.20;99.90;;;;;;5009689;28;20420;-75
2022/08/17 04:50:41;;;;;;;7.50;4.87;;;19.20;99.90;;;;;;5009580;28;20417;-75
2022/08/17 04:53:07;;;;;;;6.77;4.90;;;19.30;99.90;;;;;;4991823;28;20788;-75
2022/08/17 04:55:32;;;;;;;6.40;4.90;;;19.40;99.90;;;;;;5009478;28;20555;-75
2022/08/17 04:57:58;;;;;;;6.50;4.77;;;19.40;99.90;;;;;;4991917;28;20279;-75
2022/08/17 05:00:24;;;;;;;5.93;5.00;;;19.50;99.90;;;;;;5009277;28;20231;-76
2022/08/17 05:02:51;;;;;;;7.33;4.77;;;19.60;99.90;;;;;;4991259;28;20640;-75
2022/08/17 05:05:22;;;;;;;4.47;4.10;;;19.70;99.90;;;;;;5009187;28;21012;-75
2022/08/17 05:07:51;;;;;;;5.40;4.60;;;19.80;99.90;;;;;;5009098;28;20416;-76
2022/08/17 05:10:18;;;;;;;4.87;4.07;;;19.90;99.90;;;;;;4991574;28;20961;-75
2022/08/17 05:12:44;;;;;;;4.93;4.13;;;20.00;99.90;;;;;;5009210;28;20475;-76
2022/08/17 05:15:15;;;;;;;5.83;4.27;;;20.10;99.90;;;;;;4991573;28;20827;-74
2022/08/17 05:17:42;;;;;;;6.93;4.50;;;20.10;99.90;;;;;;5009372;28;20977;-74
2022/08/17 05:20:08;;;;;;;5.17;4.70;;;20.20;99.90;;;;;;5009456;28;20420;-76
2022/08/17 05:22:34;;;;;;;7.07;4.27;;;20.30;99.90;;;;;;5009547;28;20451;-76
2022/08/17 05:25:00;;;;;;;8.10;4.40;;;20.30;99.90;;;;;;4976141;28;20440;-74
2022/08/17 05:27:25;;;;;;;5.40;3.90;;;20.50;99.90;;;;;;4991668;28;20220;-74
2022/08/17 05:29:51;;;;;;;4.87;4.47;;;20.60;99.90;;;;;;4975185;28;20191;-74
2022/08/17 05:32:21;;;;;;;6.97;4.33;;;20.70;99.90;;;;;;4991264;28;20212;-75
2022/08/17 05:34:47;;;;;;;4.43;3.97;;;20.90;99.90;;;;;;5009624;28;20193;-75
2022/08/17 05:37:13;;;;;;;4.63;4.23;;;21.00;99.90;;;;;;5009536;28;20424;-75
2022/08/17 05:39:38;;;;;;;5.53;5.03;;;21.10;99.90;;;;;;4992478;28;20552;-77
2022/08/17 05:42:05;;;;;;;6.43;4.63;;;21.30;99.90;;;;;;4991747;28;20447;-75
2022/08/17 05:44:30;;;;;;;4.40;4.00;;;21.40;99.90;;;;;;4991505;28;20197;-75
2022/08/17 05:46:59;;;;;;;5.03;4.20;;;21.50;99.90;;;;;;5008742;28;20472;-74
2022/08/17 05:49:27;;;;;;;7.13;4.50;;;21.50;99.90;;;;;;5009414;28;20194;-75
2022/08/17 05:51:54;;;;;;;10.20;5.13;;;21.50;99.90;;;;;;5009222;28;20467;-75
2022/08/17 05:54:29;;;;;;;5.07;4.57;;;21.60;99.90;;;;;;4991505;28;20435;-74
2022/08/17 05:57:01;;;;;;;6.70;5.40;;;21.80;99.90;;;;;;5009388;28;20792;-75
2022/08/17 05:59:57;;;;;;;8.30;5.37;;;21.90;99.90;;;;;;4991254;28;20516;-75
2022/08/17 06:02:34;;;;;;;5.50;4.47;;;21.70;99.90;;;;;;5009100;28;21032;-74
2022/08/17 06:05:27;;;;;;;5.60;4.50;;;21.80;99.90;;;;;;5009098;28;20413;-74
2022/08/17 06:08:22;;;;;;;5.30;4.80;;;21.90;99.90;;;;;;5009030;28;20416;-74
2022/08/17 06:10:56;;;;;;;6.53;5.17;;;22.10;99.90;;;;;;5008688;28;20428;-74
2022/08/17 06:13:54;;;;;;;8.73;5.10;;;22.20;99.90;;;;;;5008811;28;20419;-74
2022/08/17 06:16:28;;;;;;;5.83;4.70;;;22.40;99.90;;;;;;5008509;28;20504;-74
2022/08/17 06:19:04;;;;;;;8.87;5.20;;;22.60;99.90;;;;;;5008759;28;21036;-74
2022/08/17 06:21:38;;;;;;;5.30;4.80;;;22.70;99.90;;;;;;5008239;28;20441;-74
2022/08/17 06:24:26;;;;;;;9.53;5.07;;;22.90;98.80;;;;;;5008441;28;20422;-74
2022/08/17 06:26:56;;;;;;;5.80;5.07;;;23.20;98.20;;;;;;5008215;28;20459;-74
2022/08/17 06:29:32;;;;;;;8.23;6.20;;;23.20;99.10;;;;;;5008260;28;20508;-74
2022/08/17 06:31:58;;;;;;;7.10;5.60;;;23.10;99.90;;;;;;5008171;28;20504;-74
2022/08/17 06:34:23;;;;;;;7.17;5.00;;;23.20;99.90;;;;;;5008179;28;20415;-74
2022/08/17 06:36:55;;;;;;;8.10;4.60;;;23.20;99.90;;;;;;4990491;28;20180;-74
2022/08/17 06:39:43;;;;;;;8.33;4.70;;;23.30;99.90;;;;;;5008020;28;20691;-74
2022/08/17 06:42:28;;;;;;;6.47;4.73;;;23.50;99.50;;;;;;5008436;28;20990;-74
2022/08/17 06:45:16;;;;;;;5.27;4.77;;;23.60;98.00;;;;;;5008437;28;20442;-73
2022/08/17 06:47:46;;;;;;;5.03;4.50;;;23.70;98.70;;;;;;5007916;28;20447;-72
2022/08/17 06:51:00;;;;;;;5.87;5.07;;;23.80;96.80;;;;;;5008063;28;20934;-73
2022/08/17 06:53:33;;;;;;;12.60;5.40;;;23.80;98.30;;;;;;4964543;28;20927;-74
2022/08/17 06:56:05;;;;;;;5.90;4.10;;;23.90;99.90;;;;;;5008176;28;20453;-73
2022/08/17 06:58:34;;;;;;;7.23;4.47;;;23.90;99.30;;;;;;4993471;28;20442;-73
2022/08/17 07:01:09;;;;;;;12.03;4.30;;;23.90;98.40;;;;;;5025726;28;20430;-72
2022/08/17 07:04:02;;;;;;;5.40;4.53;;;23.80;99.20;;;;;;5034076;28;20418;-72
2022/08/17 07:06:47;;;;;;;5.33;4.50;;;23.80;99.90;;;;;;5035036;28;20482;-73
2022/08/17 07:09:20;;;;;;;5.90;4.30;;;23.70;98.80;;;;;;5007064;28;20439;-73
2022/08/17 07:12:09;;;;;;;8.93;5.20;;;23.70;98.00;;;;;;5011726;28;20959;-73
2022/08/17 07:15:04;;;;;;;7.87;4.07;;;23.70;98.40;;;;;;5010648;28;20419;-73
2022/08/17 07:17:32;;;;;;;5.13;4.60;;;23.70;99.30;;;;;;5011267;28;20514;-73
2022/08/17 07:20:07;;;;;;;6.10;4.47;;;23.60;98.20;;;;;;5011116;28;20457;-73
2022/08/17 07:22:54;;;;;;;5.43;4.90;;;23.60;98.70;;;;;;4992934;28;20484;-73
2022/08/17 07:25:20;;;;;;;6.23;4.10;;;23.70;98.40;;;;;;5010811;28;20458;-73
2022/08/17 07:27:52;;;;;;;8.30;4.70;;;23.80;98.70;;;;;;5010791;28;20418;-73
2022/08/17 07:30:22;;;;;;;8.33;4.93;;;24.00;96.90;;;;;;5010968;28;20436;-73
2022/08/17 07:33:10;;;;;;;9.60;4.93;;;24.10;98.20;;;;;;4976528;28;20543;-72
2022/08/17 07:35:43;;;;;;;6.63;5.10;;;24.30;96.60;;;;;;5010122;28;21124;-73
2022/08/17 07:38:23;;;;;;;9.83;5.27;;;24.50;96.50;;;;;;5010572;28;20434;-73
2022/08/17 07:41:01;;;;;;;5.27;4.73;;;24.60;96.40;;;;;;5010811;28;20473;-77
2022/08/17 07:43:36;;;;;;;9.37;5.20;;;24.70;95.40;;;;;;5010446;28;20514;-77
2022/08/17 07:49:31;;;;;;;6.67;4.77;;;25.00;95.30;;;;;;5010974;28;21007;-77
2022/08/17 07:52:01;;;;;;;7.87;4.60;;;25.20;93.70;;;;;;4994239;28;20457;-77
2022/08/17 07:54:37;;;;;;;6.07;5.57;;;25.40;94.20;;;;;;5010478;28;20817;-79
2022/08/17 07:57:26;;;;;;;5.20;4.33;;;25.50;94.50;;;;;;5010712;28;21021;-78
2022/08/17 08:00:00;;;;;;;5.50;4.60;;;25.70;93.50;;;;;;5010532;28;20416;-77
2022/08/17 08:02:30;;;;;;;5.20;4.50;;;25.80;93.50;;;;;;4992380;28;20479;-77
2022/08/17 08:05:08;;;;;;;6.57;4.87;;;25.70;94.00;;;;;;5010423;28;20420;-78
2022/08/17 08:07:49;;;;;;;6.03;4.77;;;25.70;93.20;;;;;;5010154;28;20400;-76
2022/08/17 08:10:30;;;;;;;5.67;4.67;;;25.70;93.00;;;;;;5009825;28;21063;-77
2022/08/17 08:13:13;;;;;;;6.27;4.67;;;25.70;92.40;;;;;;5010073;28;20440;-76
2022/08/17 08:15:42;;;;;;;6.03;4.90;;;25.80;93.30;;;;;;5010280;28;20412;-77
2022/08/17 08:18:33;;;;;;;4.80;4.40;;;25.80;93.00;;;;;;5010085;28;20503;-78
2022/08/17 08:21:08;;;;;;;5.50;4.37;;;25.90;92.20;;;;;;4981597;28;21061;-76
2022/08/17 08:23:51;;;;;;;5.50;5.00;;;25.90;91.60;;;;;;4992243;28;20415;-77
2022/08/17 08:26:41;;;;;;;10.83;5.33;;;25.90;92.70;;;;;;4991905;28;20483;-78
2022/08/17 08:29:27;;;;;;;7.40;5.20;;;25.90;92.50;;;;;;4992087;28;20994;-77
2022/08/17 08:32:18;;;;;;;8.47;5.37;;;25.90;92.30;;;;;;5010010;28;20432;-77
2022/08/17 08:35:10;;;;;;;8.23;5.10;;;26.00;92.70;;;;;;5010345;28;20400;-76
2022/08/17 08:38:04;;;;;;;4.73;4.20;;;25.90;92.10;;;;;;4991634;28;20491;-77
2022/08/17 08:41:10;;;;;;;5.70;5.20;;;25.90;94.40;;;;;;4991876;28;20413;-76
2022/08/17 08:44:14;;;;;;;9.43;5.10;;;25.90;93.00;;;;;;5009464;28;20955;-76
2022/08/17 08:46:49;;;;;;;7.63;4.83;;;25.90;93.10;;;;;;4938739;28;20482;-77
2022/08/17 08:49:42;;;;;;;12.73;5.10;;;25.80;93.50;;;;;;5009468;28;20415;-76
2022/08/17 08:52:48;;;;;;;6.10;5.50;;;25.70;93.90;;;;;;5009583;28;20913;-77
2022/08/17 08:55:25;;;;;;;5.10;4.53;;;25.50;93.90;;;;;;5005707;28;20436;-77
2022/08/17 08:57:59;;;;;;;7.77;5.40;;;25.40;93.40;;;;;;5009394;28;20396;-76
2022/08/17 09:00:26;;;;;;;6.10;5.40;;;25.30;93.90;;;;;;5009532;28;21095;-77
2022/08/17 09:03:07;;;;;;;7.83;4.90;;;25.20;93.60;;;;;;5009153;28;20999;-77
2022/08/17 09:05:54;;;;;;;7.23;5.20;;;25.20;92.90;;;;;;4991518;28;20547;-77
2022/08/17 09:08:44;;;;;;;8.30;5.33;;;25.20;93.70;;;;;;5009860;28;20773;-77
2022/08/17 09:11:15;;;;;;;5.47;4.97;;;25.30;94.90;;;;;;5009855;28;20471;-77
2022/08/17 09:14:06;;;;;;;6.90;4.87;;;25.30;98.70;;;;;;5009800;28;20472;-77
2022/08/17 09:16:47;;;;;;;6.50;5.00;;;25.40;95.90;;;;;;5009398;28;20455;-77
2022/08/17 09:19:34;;;;;;;7.33;5.57;;;25.50;95.00;;;;;;5009742;28;20416;-77
2022/08/17 09:22:16;;;;;;;6.10;5.50;;;25.60;95.70;;;;;;5009152;28;20892;-76
2022/08/17 09:25:10;;;;;;;7.80;5.40;;;25.60;94.40;;;;;;5010012;28;20833;-80
2022/08/17 09:27:37;;;;;;;6.73;4.97;;;25.50;94.20;;;;;;4992091;28;20463;-77
2022/08/17 09:30:08;;;;;;;7.73;5.43;;;25.40;94.20;;;;;;5009623;28;20466;-78
2022/08/17 09:32:40;;;;;;;8.03;5.40;;;25.30;95.70;;;;;;5009277;28;20514;-80
2022/08/17 09:35:28;;;;;;;7.37;5.30;;;25.10;94.90;;;;;;4991815;28;20393;-78
2022/08/17 09:38:03;;;;;;;6.43;4.60;;;25.00;96.20;;;;;;4991792;28;20466;-77
2022/08/17 09:40:34;;;;;;;7.50;5.80;;;24.80;96.50;;;;;;5009301;28;20449;-77
2022/08/17 09:43:02;;;;;;;6.07;5.47;;;24.70;96.80;;;;;;5009029;28;20835;-77
2022/08/17 09:45:35;;;;;;;9.53;4.97;;;24.60;97.40;;;;;;4991008;28;20549;-77
2022/08/17 09:48:39;;;;;;;5.90;5.43;;;24.60;97.40;;;;;;5009033;28;20415;-77
2022/08/17 09:51:18;;;;;;;7.00;5.93;;;24.40;99.00;;;;;;4997962;28;20431;-76
2022/08/17 09:53:44;;;;;;;7.83;5.77;;;24.40;99.00;;;;;;5008785;28;20422;-79
2022/08/17 09:56:31;;;;;;;10.47;5.77;;;24.40;99.40;;;;;;5008698;28;20427;-76
2022/08/17 09:58:59;;;;;;;6.00;5.50;;;24.30;99.80;;;;;;5008764;28;20172;-77
2022/08/17 10:01:49;;;;;;;11.63;5.57;;;24.30;98.50;;;;;;4990553;28;20465;-78
2022/08/17 10:04:41;;;;;;;6.13;5.63;;;24.30;99.70;;;;;;4991147;28;20518;-78
2022/08/17 10:07:15;;;;;;;8.40;6.40;;;24.30;99.20;;;;;;5008544;28;20471;-77
2022/08/17 10:09:56;;;;;;;7.23;4.80;;;24.30;98.90;;;;;;5008576;28;20482;-77
2022/08/17 10:12:42;;;;;;;6.70;5.77;;;24.20;99.90;;;;;;4990691;28;20861;-76
2022/08/17 10:15:41;;;;;;;8.37;5.80;;;24.20;99.90;;;;;;4990766;28;20727;-75
2022/08/17 10:18:42;;;;;;;10.13;6.23;;;24.00;99.90;;;;;;5008343;28;20400;-77
2022/08/17 10:27:16;;;;;;;6.57;6.00;;;23.80;99.90;;;;;;5007936;28;21044;-76
2022/08/17 10:29:51;;;;;;;6.50;5.90;;;23.80;99.90;;;;;;5008002;28;20422;-76
2022/08/17 10:32:54;;;;;;;8.53;6.13;;;23.70;99.90;;;;;;5009431;28;20470;-77
2022/08/17 10:35:27;;;;;;;7.13;5.90;;;23.80;99.90;;;;;;4994061;28;20544;-76
2022/08/17 10:38:13;;;;;;;9.03;7.70;;;23.80;99.90;;;;;;5011721;28;20412;-79
2022/08/17 10:41:03;;;;;;;7.20;6.50;;;23.70;99.90;;;;;;5012360;28;20422;-76
2022/08/17 10:43:57;;;;;;;8.27;7.47;;;23.90;99.90;;;;;;5011956;28;20493;-78
2022/08/17 10:46:45;;;;;;;9.43;6.60;;;24.10;99.90;;;;;;5011378;28;20447;-77
2022/08/17 10:49:33;;;;;;;9.47;6.43;;;24.70;99.90;;;;;;5011307;28;20435;-76
2022/08/17 10:52:03;;;;;;;9.53;6.83;;;25.70;99.90;;;;;;4983126;28;20447;-77
2022/08/17 10:54:37;;;;;;;11.47;6.70;;;26.00;99.90;;;;;;4993785;28;20427;-77
2022/08/17 10:57:32;;;;;;;7.23;6.47;;;26.10;99.90;;;;;;4993620;28;20492;-77
2022/08/17 11:00:13;;;;;;;9.30;5.37;;;26.10;99.90;;;;;;5011586;28;20438;-77
2022/08/17 11:02:49;;;;;;;7.30;5.13;;;26.60;99.90;;;;;;5011550;28;20467;-77
2022/08/17 11:05:31;;;;;;;7.10;6.10;;;26.70;99.70;;;;;;4993569;28;20462;-77
2022/08/17 11:08:32;;;;;;;5.80;5.20;;;26.70;95.80;;;;;;4993972;28;20431;-77
2022/08/17 11:11:18;;;;;;;6.23;4.60;;;26.80;95.80;;;;;;4996407;28;20417;-77
2022/08/17 11:14:03;;;;;;;4.63;4.27;;;27.00;93.10;;;;;;5011336;28;20778;-78
2022/08/17 11:16:57;;;;;;;10.00;4.90;;;27.00;91.90;;;;;;5011566;28;20403;-76
2022/08/17 11:19:42;;;;;;;5.47;4.13;;;27.00;91.10;;;;;;5011312;28;20832;-76
2022/08/17 11:22:21;;;;;;;4.93;4.50;;;27.20;90.40;;;;;;5011427;28;20476;-77
2022/08/17 11:24:50;;;;;;;5.13;4.50;;;27.20;90.70;;;;;;5011300;28;20432;-77
2022/08/17 11:27:29;;;;;;;4.80;4.30;;;27.00;90.80;;;;;;5010869;28;20467;-77
2022/08/17 11:29:59;;;;;;;5.77;4.50;;;26.80;90.30;;;;;;5011270;28;20400;-77
2022/08/17 11:32:36;;;;;;;5.30;4.37;;;26.50;91.10;;;;;;4993319;28;20539;-77
2022/08/17 11:35:06;;;;;;;5.60;5.00;;;26.30;91.10;;;;;;5010976;28;20411;-77
2022/08/17 11:37:46;;;;;;;7.37;4.70;;;26.20;91.90;;;;;;5010914;28;20416;-77
2022/08/17 11:40:37;;;;;;;4.70;4.30;;;26.00;91.30;;;;;;4993208;28;20414;-77
2022/08/17 11:43:44;;;;;;;11.03;4.60;;;25.90;91.80;;;;;;5010182;28;20967;-76
2022/08/17 11:51:32;;;;;;;7.90;4.67;;;25.90;92.20;;;;;;5010617;28;20487;-77
2022/08/17 11:52:42;;;;;;;5.17;4.77;;;25.90;92.30;;;;;;4989699;28;20464;-77
2022/08/17 11:55:31;;;;;;;9.73;5.03;;;25.80;93.30;;;;;;5010388;28;20925;-77
2022/08/17 11:58:16;;;;;;;5.37;4.80;;;25.90;93.20;;;;;;5010382;28;20427;-77
2022/08/17 12:00:45;;;;;;;5.27;4.50;;;26.10;93.00;;;;;;5008894;28;20427;-77
2022/08/17 12:03:30;;;;;;;5.77;5.17;;;26.30;93.30;;;;;;5009720;28;20466;-77
2022/08/17 12:06:12;;;;;;;5.60;5.10;;;26.70;92.50;;;;;;5010013;28;20542;-76
2022/08/17 12:08:42;;;;;;;5.17;4.27;;;26.90;91.50;;;;;;4992006;28;20499;-76
2022/08/17 12:11:27;;;;;;;7.30;4.97;;;27.00;91.10;;;;;;5010167;28;20491;-77
2022/08/17 12:13:57;;;;;;;6.47;4.47;;;27.20;90.40;;;;;;5009757;28;20408;-78
2022/08/17 12:16:24;;;;;;;6.40;4.30;;;27.20;90.40;;;;;;5009769;28;20427;-78
2022/08/17 12:19:01;;;;;;;4.80;4.07;;;27.30;91.10;;;;;;5009783;28;20416;-78
2022/08/17 12:21:36;;;;;;;7.83;4.47;;;27.90;90.40;;;;;;5009539;28;20530;-77
2022/08/17 12:24:17;;;;;;;4.30;3.53;;;28.30;89.00;;;;;;5009572;28;20821;-76
2022/08/17 12:26:54;;;;;;;4.50;4.10;;;28.70;84.10;;;;;;5009677;28;20507;-76
2022/08/17 12:29:20;;;;;;;4.93;3.70;;;29.10;84.30;;;;;;4991827;28;20412;-77
2022/08/17 12:31:52;;;;;;;4.73;4.00;;;29.30;81.40;;;;;;5009398;28;20435;-76
2022/08/17 12:34:34;;;;;;;7.30;3.80;;;29.70;79.90;;;;;;4991466;28;20432;-77
2022/08/17 12:37:04;;;;;;;7.10;3.40;;;29.90;75.90;;;;;;4991334;28;20420;-78
2022/08/17 12:39:30;;;;;;;3.57;3.27;;;30.00;73.20;;;;;;5009172;28;20440;-78
2022/08/17 12:41:59;;;;;;;4.40;3.03;;;30.00;71.10;;;;;;5009111;28;20953;-79
2022/08/17 12:44:29;;;;;;;2.77;2.57;;;30.00;71.60;;;;;;4991243;28;20189;-77
2022/08/17 12:47:13;;;;;;;3.30;3.03;;;30.20;69.20;;;;;;4990853;28;20502;-77
2022/08/17 12:49:41;;;;;;;3.60;3.00;;;30.20;69.20;;;;;;4992772;28;20412;-78
2022/08/17 12:52:18;;;;;;;4.70;3.70;;;30.30;67.70;;;;;;4991050;28;20777;-77
2022/08/17 12:55:09;;;;;;;4.20;3.07;;;30.40;66.80;;;;;;5008781;28;21087;-77
2022/08/17 12:57:38;;;;;;;3.93;3.37;;;30.20;66.10;;;;;;5008784;28;20998;-77
2022/08/17 13:00:16;;;;;;;4.20;3.10;;;30.00;66.70;;;;;;5008585;28;21034;-77
2022/08/17 13:02:44;;;;;;;3.60;3.33;;;30.00;67.10;;;;;;4990796;28;20460;-78
2022/08/17 13:05:23;;;;;;;6.53;3.63;;;30.30;66.40;;;;;;5008533;28;20415;-77
2022/08/17 13:07:49;;;;;;;4.97;3.63;;;30.70;65.20;;;;;;5008608;28;20408;-77
2022/08/17 13:10:20;;;;;;;2.93;2.73;;;30.60;64.50;;;;;;5008714;28;20863;-78
2022/08/17 13:12:49;;;;;;;4.80;3.37;;;30.50;63.60;;;;;;5008741;28;20201;-79
2022/08/17 13:15:36;;;;;;;3.90;3.57;;;30.30;64.30;;;;;;4991180;28;20859;-77
2022/08/17 13:18:37;;;;;;;4.10;3.67;;;30.20;63.20;;;;;;4990492;28;20823;-79
2022/08/17 13:21:05;;;;;;;4.00;3.60;;;30.20;63.50;;;;;;4960470;28;20431;-77
2022/08/17 13:23:31;;;;;;;3.90;3.50;;;30.00;64.80;;;;;;5008250;28;20418;-79
2022/08/17 13:26:06;;;;;;;3.90;3.60;;;30.10;65.60;;;;;;5008297;28;20455;-77
2022/08/17 13:28:34;;;;;;;7.00;3.30;;;29.90;65.30;;;;;;5008054;28;20408;-76
2022/08/17 13:31:26;;;;;;;4.03;3.63;;;30.10;66.00;;;;;;5008235;28;20420;-76
2022/08/17 13:34:39;;;;;;;3.93;3.57;;;30.30;65.60;;;;;;4990154;28;20519;-77
2022/08/17 13:37:27;;;;;;;5.23;3.20;;;30.40;65.30;;;;;;5000063;28;20924;-76
2022/08/17 13:40:13;;;;;;;4.37;3.93;;;30.70;65.90;;;;;;5008056;28;20401;-77
2022/08/17 13:42:42;;;;;;;4.03;3.73;;;30.80;64.30;;;;;;4994582;28;21089;-77
2022/08/17 13:45:33;;;;;;;4.43;3.80;;;30.30;64.60;;;;;;5008163;28;20418;-76
2022/08/17 13:48:08;;;;;;;7.87;4.37;;;30.00;66.20;;;;;;4993475;28;20454;-82
2022/08/17 13:50:51;;;;;;;6.13;4.10;;;29.80;65.90;;;;;;4992923;28;20415;-80
2022/08/17 13:53:34;;;;;;;3.60;3.30;;;29.70;67.20;;;;;;5009881;28;20442;-81